Maria Noelle — WDD9564 — position and weather

sailwx.info

Track history (hours):
 
Tides and Currents Weather Stations Pressure Air Temp Water Temp Dewpoint Dewpoint Depression Visibility Wind Speed Wind Dir Waves Ship Positions

Maria Noelle

Owner: MUROS INC, POINT PLEASANT, NJ. More information available from US FCC via Universal Licensing System and Coast Guard Vessel Documentation Center.

Last reported at 2014-Sep-30 12:27 UTC. Time now 2014-Oct-01 20:21 UTC.
Position N 40°10' W 073°11'.

Length 26 m.

Type: Fishing. MMSI: 367313170.

Date/timePositionNaut miles runAvg speedWind from/ knotsBaromVisibWave heightAir tempDewpointWater temp
2014-Sep-30 12:27N 40°10' W 073°11'1 1.1
2014-Sep-30 11:33N 40°10' W 073°10'3 3.2
2014-Sep-30 10:33N 40°11' W 073°14'4 3.1
2014-Sep-30 09:23N 40°08' W 073°11'1 1.0
2014-Sep-30 08:33N 40°07' W 073°11'4 1.8
2014-Sep-30 06:27N 40°07' W 073°16'4 4.4
2014-Sep-30 05:31N 40°08' W 073°21'3 2.6
2014-Sep-30 04:33N 40°07' W 073°18'1 1.1
2014-Sep-30 03:32N 40°06' W 073°19'2 1.9
2014-Sep-30 02:33N 40°08' W 073°19'5 4.8
2014-Sep-30 01:33N 40°08' W 073°25'8 8.3
2014-Sep-30 00:33N 40°07' W 073°36'9 8.5
2014-Sep-29 23:33N 40°07' W 073°47'11 8.4
2014-Sep-29 22:12N 40°06' W 074°02'1 0.5
2014-Sep-29 21:07N 40°06' W 074°02'5 6.9
2014-Sep-29 20:24N 40°09' W 073°57'7 8.2
2014-Sep-29 19:33N 40°12' W 073°49'6 6.1
2014-Sep-29 18:33N 40°16' W 073°42'3 2.8
2014-Sep-29 17:33N 40°18' W 073°45'1 0.6
2014-Sep-29 16:33N 40°18' W 073°44'3 2.9
2014-Sep-29 15:33N 40°15' W 073°42'2 2.3
2014-Sep-29 14:33N 40°16' W 073°39'1 0.8
2014-Sep-29 13:33N 40°17' W 073°39'3 2.9
2014-Sep-29 12:33N 40°17' W 073°35'1 0.5
2014-Sep-29 11:33N 40°17' W 073°35'3 2.9
2014-Sep-29 10:33N 40°17' W 073°38'2 2.2
2014-Sep-29 09:33N 40°15' W 073°40'2 1.7
2014-Sep-29 08:33N 40°16' W 073°42'1 1.4
2014-Sep-29 07:33N 40°17' W 073°41'3 2.9
2014-Sep-29 06:33N 40°15' W 073°38'2 1.5
2014-Sep-29 05:33N 40°16' W 073°36'2 2.3
2014-Sep-29 04:33N 40°17' W 073°39'2 2.3
2014-Sep-29 03:33N 40°17' W 073°36'3 2.8
2014-Sep-29 02:33N 40°17' W 073°32'3 2.6
2014-Sep-29 01:33N 40°18' W 073°35'3 2.7
2014-Sep-29 00:33N 40°17' W 073°39'3 2.7
2014-Sep-28 23:33N 40°17' W 073°43'2 1.7
2014-Sep-28 22:33N 40°18' W 073°44'3 2.4
2014-Sep-28 21:26N 40°17' W 073°41'2 2.5
2014-Sep-28 20:32N 40°18' W 073°44'1 1.0
2014-Sep-28 19:32N 40°17' W 073°44'3 2.7
2014-Sep-28 18:33N 40°15' W 073°41'2 2.5
2014-Sep-28 17:33N 40°14' W 073°38'2 1.9
2014-Sep-28 16:30N 40°15' W 073°36'3 2.9
2014-Sep-28 15:33N 40°15' W 073°40'3 3.3
2014-Sep-28 14:33N 40°13' W 073°43'8 8.1
2014-Sep-28 13:33N 40°09' W 073°52'8 7.9
2014-Sep-28 12:33N 40°06' W 074°02'  
2014-Sep-23 23:17N 40°11' W 073°34'11 6.5
2014-Sep-23 21:33N 40°13' W 073°20'5 4.4
2014-Sep-23 20:32N 40°14' W 073°14'4 2.7
2014-Sep-23 19:10N 40°15' W 073°09'3 4.7
2014-Sep-23 18:26N 40°16' W 073°05'3 3.6
2014-Sep-23 17:34N 40°17' W 073°01'4 1.7
2014-Sep-23 15:27N 40°16' W 073°06'43 2.0
2014-Sep-22 18:20N 40°06' W 074°01'14 8.0
2014-Sep-22 16:32N 40°15' W 073°45'8 8.0
2014-Sep-22 15:32N 40°19' W 073°37'10 7.2
2014-Sep-22 14:10N 40°25' W 073°26'2 3.6
2014-Sep-22 13:30N 40°26' W 073°23'4 3.0
2014-Sep-22 12:17N 40°26' W 073°19'3 2.4
2014-Sep-22 11:10N 40°26' W 073°15'2 2.8
2014-Sep-22 10:33N 40°26' W 073°17'3 3.0
2014-Sep-22 09:33N 40°26' W 073°21'3 3.0
2014-Sep-22 08:33N 40°26' W 073°25'3 2.9
2014-Sep-22 07:33N 40°27' W 073°29'1 0.6
2014-Sep-22 06:33N 40°27' W 073°28'2 1.7
2014-Sep-22 05:29N 40°25' W 073°26'3 2.7
2014-Sep-22 04:33N 40°24' W 073°29'1 1.3
2014-Sep-22 03:33N 40°23' W 073°28'2 1.8
2014-Sep-22 02:33N 40°23' W 073°25'3 2.7
2014-Sep-22 01:32N 40°26' W 073°28'2 2.0
2014-Sep-22 00:18N 40°23' W 073°29'3 2.8
2014-Sep-21 23:24N 40°22' W 073°32'3 2.8
2014-Sep-21 22:30N 40°20' W 073°34'4 2.6
2014-Sep-21 21:08N 40°17' W 073°36'2 2.9
2014-Sep-21 20:33N 40°17' W 073°34'3 3.3
2014-Sep-21 19:32N 40°17' W 073°29'7 7.1
2014-Sep-21 18:33N 40°14' W 073°21'2 1.6
2014-Sep-21 17:30N 40°13' W 073°21'6 2.9
2014-Sep-21 15:32N 40°13' W 073°29'5 4.8
2014-Sep-21 14:33N 40°16' W 073°33'3 2.9
2014-Sep-21 13:33N 40°19' W 073°31'3 2.8
2014-Sep-21 12:31N 40°22' W 073°30'2 0.6
2014-Sep-21 09:26N 40°20' W 073°32'7 0.9
2014-Sep-21 02:07N 40°27' W 073°29'2 2.9
2014-Sep-21 01:33N 40°27' W 073°31'3 2.9
2014-Sep-21 00:33N 40°28' W 073°34'4 3.6
2014-Sep-20 23:33N 40°27' W 073°38'8 7.8
2014-Sep-20 22:32N 40°21' W 073°45'17 7.5
2014-Sep-20 20:15N 40°08' W 073°59'  
Track history (hours):
 
Tides and Currents Weather Stations Pressure Air Temp Water Temp Dewpoint Dewpoint Depression Visibility Wind Speed Wind Dir Waves Ship Positions

Maria Noelle

Owner: MUROS INC, POINT PLEASANT, NJ. More information available from US FCC via Universal Licensing System and Coast Guard Vessel Documentation Center.

Last reported at 2014-Sep-30 12:27 UTC. Time now 2014-Oct-01 20:21 UTC.
Position N 40°10' W 073°11'.

Length 26 m.

Type: Fishing. MMSI: 367313170.

Date/timePositionNaut miles runAvg speedWind from/ knotsBaromVisibWave heightAir tempDewpointWater temp
2014-Sep-30 12:27N 40°10' W 073°11'1 1.1
2014-Sep-30 11:33N 40°10' W 073°10'3 3.2
2014-Sep-30 10:33N 40°11' W 073°14'4 3.1
2014-Sep-30 09:23N 40°08' W 073°11'1 1.0
2014-Sep-30 08:33N 40°07' W 073°11'4 1.8
2014-Sep-30 06:27N 40°07' W 073°16'4 4.4
2014-Sep-30 05:31N 40°08' W 073°21'3 2.6
2014-Sep-30 04:33N 40°07' W 073°18'1 1.1
2014-Sep-30 03:32N 40°06' W 073°19'2 1.9
2014-Sep-30 02:33N 40°08' W 073°19'5 4.8
2014-Sep-30 01:33N 40°08' W 073°25'8 8.3
2014-Sep-30 00:33N 40°07' W 073°36'9 8.5
2014-Sep-29 23:33N 40°07' W 073°47'11 8.4
2014-Sep-29 22:12N 40°06' W 074°02'1 0.5
2014-Sep-29 21:07N 40°06' W 074°02'5 6.9
2014-Sep-29 20:24N 40°09' W 073°57'7 8.2
2014-Sep-29 19:33N 40°12' W 073°49'6 6.1
2014-Sep-29 18:33N 40°16' W 073°42'3 2.8
2014-Sep-29 17:33N 40°18' W 073°45'1 0.6
2014-Sep-29 16:33N 40°18' W 073°44'3 2.9
2014-Sep-29 15:33N 40°15' W 073°42'2 2.3
2014-Sep-29 14:33N 40°16' W 073°39'1 0.8
2014-Sep-29 13:33N 40°17' W 073°39'3 2.9
2014-Sep-29 12:33N 40°17' W 073°35'1 0.5
2014-Sep-29 11:33N 40°17' W 073°35'3 2.9
2014-Sep-29 10:33N 40°17' W 073°38'2 2.2
2014-Sep-29 09:33N 40°15' W 073°40'2 1.7
2014-Sep-29 08:33N 40°16' W 073°42'1 1.4
2014-Sep-29 07:33N 40°17' W 073°41'3 2.9
2014-Sep-29 06:33N 40°15' W 073°38'2 1.5
2014-Sep-29 05:33N 40°16' W 073°36'2 2.3
2014-Sep-29 04:33N 40°17' W 073°39'2 2.3
2014-Sep-29 03:33N 40°17' W 073°36'3 2.8
2014-Sep-29 02:33N 40°17' W 073°32'3 2.6
2014-Sep-29 01:33N 40°18' W 073°35'3 2.7
2014-Sep-29 00:33N 40°17' W 073°39'3 2.7
2014-Sep-28 23:33N 40°17' W 073°43'2 1.7
2014-Sep-28 22:33N 40°18' W 073°44'3 2.4
2014-Sep-28 21:26N 40°17' W 073°41'2 2.5
2014-Sep-28 20:32N 40°18' W 073°44'1 1.0
2014-Sep-28 19:32N 40°17' W 073°44'3 2.7
2014-Sep-28 18:33N 40°15' W 073°41'2 2.5
2014-Sep-28 17:33N 40°14' W 073°38'2 1.9
2014-Sep-28 16:30N 40°15' W 073°36'3 2.9
2014-Sep-28 15:33N 40°15' W 073°40'3 3.3
2014-Sep-28 14:33N 40°13' W 073°43'8 8.1
2014-Sep-28 13:33N 40°09' W 073°52'8 7.9
2014-Sep-28 12:33N 40°06' W 074°02'  
2014-Sep-23 23:17N 40°11' W 073°34'11 6.5
2014-Sep-23 21:33N 40°13' W 073°20'5 4.4
2014-Sep-23 20:32N 40°14' W 073°14'4 2.7
2014-Sep-23 19:10N 40°15' W 073°09'3 4.7
2014-Sep-23 18:26N 40°16' W 073°05'3 3.6
2014-Sep-23 17:34N 40°17' W 073°01'4 1.7
2014-Sep-23 15:27N 40°16' W 073°06'43 2.0
2014-Sep-22 18:20N 40°06' W 074°01'14 8.0
2014-Sep-22 16:32N 40°15' W 073°45'8 8.0
2014-Sep-22 15:32N 40°19' W 073°37'10 7.2
2014-Sep-22 14:10N 40°25' W 073°26'2 3.6
2014-Sep-22 13:30N 40°26' W 073°23'4 3.0
2014-Sep-22 12:17N 40°26' W 073°19'3 2.4
2014-Sep-22 11:10N 40°26' W 073°15'2 2.8
2014-Sep-22 10:33N 40°26' W 073°17'3 3.0
2014-Sep-22 09:33N 40°26' W 073°21'3 3.0
2014-Sep-22 08:33N 40°26' W 073°25'3 2.9
2014-Sep-22 07:33N 40°27' W 073°29'1 0.6
2014-Sep-22 06:33N 40°27' W 073°28'2 1.7
2014-Sep-22 05:29N 40°25' W 073°26'3 2.7
2014-Sep-22 04:33N 40°24' W 073°29'1 1.3
2014-Sep-22 03:33N 40°23' W 073°28'2 1.8
2014-Sep-22 02:33N 40°23' W 073°25'3 2.7
2014-Sep-22 01:32N 40°26' W 073°28'2 2.0
2014-Sep-22 00:18N 40°23' W 073°29'3 2.8
2014-Sep-21 23:24N 40°22' W 073°32'3 2.8
2014-Sep-21 22:30N 40°20' W 073°34'4 2.6
2014-Sep-21 21:08N 40°17' W 073°36'2 2.9
2014-Sep-21 20:33N 40°17' W 073°34'3 3.3
2014-Sep-21 19:32N 40°17' W 073°29'7 7.1
2014-Sep-21 18:33N 40°14' W 073°21'2 1.6
2014-Sep-21 17:30N 40°13' W 073°21'6 2.9
2014-Sep-21 15:32N 40°13' W 073°29'5 4.8
2014-Sep-21 14:33N 40°16' W 073°33'3 2.9
2014-Sep-21 13:33N 40°19' W 073°31'3 2.8
2014-Sep-21 12:31N 40°22' W 073°30'2 0.6
2014-Sep-21 09:26N 40°20' W 073°32'7 0.9
2014-Sep-21 02:07N 40°27' W 073°29'2 2.9
2014-Sep-21 01:33N 40°27' W 073°31'3 2.9
2014-Sep-21 00:33N 40°28' W 073°34'4 3.6
2014-Sep-20 23:33N 40°27' W 073°38'8 7.8
2014-Sep-20 22:32N 40°21' W 073°45'17 7.5
2014-Sep-20 20:15N 40°08' W 073°59'  

Dump ship's entire track history